sensor_id;sensor_type;location;lat;lon;timestamp;P1;durP1;ratioP1;P2;durP2;ratioP2
22248;SDS011;67538;52.180;5.646;2024-03-25T00:00:10;34.83;;;4.93;;
22248;SDS011;67538;52.180;5.646;2024-03-25T00:02:38;38.60;;;5.17;;
22248;SDS011;67538;52.180;5.646;2024-03-25T00:05:04;28.30;;;4.87;;
22248;SDS011;67538;52.180;5.646;2024-03-25T00:07:32;23.30;;;4.47;;
22248;SDS011;67538;52.180;5.646;2024-03-25T00:09:58;23.07;;;4.60;;
22248;SDS011;67538;52.180;5.646;2024-03-25T00:12:25;30.13;;;4.43;;
22248;SDS011;67538;52.180;5.646;2024-03-25T00:14:51;22.87;;;4.47;;
22248;SDS011;67538;52.180;5.646;2024-03-25T00:17:20;39.07;;;4.80;;
22248;SDS011;67538;52.180;5.646;2024-03-25T00:19:46;23.80;;;4.60;;
22248;SDS011;67538;52.180;5.646;2024-03-25T00:22:16;32.80;;;4.70;;
22248;SDS011;67538;52.180;5.646;2024-03-25T00:24:42;25.80;;;4.70;;
22248;SDS011;67538;52.180;5.646;2024-03-25T00:27:09;29.77;;;4.43;;
22248;SDS011;67538;52.180;5.646;2024-03-25T00:29:35;40.70;;;5.17;;
22248;SDS011;67538;52.180;5.646;2024-03-25T00:32:02;27.37;;;4.80;;
22248;SDS011;67538;52.180;5.646;2024-03-25T00:34:30;19.20;;;4.47;;
22248;SDS011;67538;52.180;5.646;2024-03-25T00:36:57;32.43;;;5.43;;
22248;SDS011;67538;52.180;5.646;2024-03-25T00:39:23;22.00;;;4.77;;
22248;SDS011;67538;52.180;5.646;2024-03-25T00:41:50;37.23;;;5.20;;
22248;SDS011;67538;52.180;5.646;2024-03-25T00:44:17;36.50;;;5.00;;
22248;SDS011;67538;52.180;5.646;2024-03-25T00:46:44;33.73;;;5.20;;
22248;SDS011;67538;52.180;5.646;2024-03-25T00:49:10;28.33;;;4.30;;
22248;SDS011;67538;52.180;5.646;2024-03-25T00:51:39;33.43;;;5.10;;
22248;SDS011;67538;52.180;5.646;2024-03-25T00:54:05;29.70;;;5.13;;
22248;SDS011;67538;52.180;5.646;2024-03-25T00:56:32;30.93;;;4.73;;
22248;SDS011;67538;52.180;5.646;2024-03-25T00:58:58;31.37;;;4.77;;
22248;SDS011;67538;52.180;5.646;2024-03-25T01:01:27;22.17;;;4.53;;
22248;SDS011;67538;52.180;5.646;2024-03-25T01:03:53;37.60;;;5.33;;
22248;SDS011;67538;52.180;5.646;2024-03-25T01:06:20;35.00;;;5.90;;
22248;SDS011;67538;52.180;5.646;2024-03-25T01:08:48;35.97;;;5.10;;
22248;SDS011;67538;52.180;5.646;2024-03-25T01:11:15;29.90;;;5.50;;
22248;SDS011;67538;52.180;5.646;2024-03-25T01:13:41;29.70;;;4.93;;
22248;SDS011;67538;52.180;5.646;2024-03-25T01:16:08;31.17;;;4.97;;
22248;SDS011;67538;52.180;5.646;2024-03-25T01:18:35;34.27;;;5.17;;
22248;SDS011;67538;52.180;5.646;2024-03-25T01:21:02;34.27;;;5.40;;
22248;SDS011;67538;52.180;5.646;2024-03-25T01:23:29;28.80;;;4.63;;
22248;SDS011;67538;52.180;5.646;2024-03-25T01:25:58;28.67;;;5.57;;
22248;SDS011;67538;52.180;5.646;2024-03-25T01:28:24;33.63;;;5.00;;
22248;SDS011;67538;52.180;5.646;2024-03-25T01:30:51;35.43;;;4.97;;
22248;SDS011;67538;52.180;5.646;2024-03-25T01:33:17;29.33;;;5.27;;
22248;SDS011;67538;52.180;5.646;2024-03-25T01:35:44;34.83;;;5.60;;
22248;SDS011;67538;52.180;5.646;2024-03-25T01:48:23;36.67;;;5.03;;
22248;SDS011;67538;52.180;5.646;2024-03-25T01:50:50;32.30;;;5.23;;
22248;SDS011;67538;52.180;5.646;2024-03-25T01:53:18;24.47;;;4.77;;
22248;SDS011;67538;52.180;5.646;2024-03-25T01:55:45;36.93;;;5.47;;
22248;SDS011;67538;52.180;5.646;2024-03-25T01:58:13;31.20;;;4.90;;
22248;SDS011;67538;52.180;5.646;2024-03-25T02:00:41;21.20;;;5.07;;
22248;SDS011;67538;52.180;5.646;2024-03-25T02:03:09;33.30;;;4.40;;
22248;SDS011;67538;52.180;5.646;2024-03-25T02:05:38;38.33;;;5.50;;
22248;SDS011;67538;52.180;5.646;2024-03-25T02:08:04;29.87;;;4.90;;
22248;SDS011;67538;52.180;5.646;2024-03-25T02:10:33;32.83;;;4.73;;
22248;SDS011;67538;52.180;5.646;2024-03-25T02:12:59;23.27;;;4.57;;
22248;SDS011;67538;52.180;5.646;2024-03-25T02:15:26;23.13;;;4.57;;
22248;SDS011;67538;52.180;5.646;2024-03-25T02:17:52;30.77;;;5.97;;
22248;SDS011;67538;52.180;5.646;2024-03-25T02:20:19;29.37;;;5.00;;
22248;SDS011;67538;52.180;5.646;2024-03-25T02:22:47;31.50;;;4.90;;
22248;SDS011;67538;52.180;5.646;2024-03-25T02:25:14;30.43;;;4.50;;
22248;SDS011;67538;52.180;5.646;2024-03-25T02:27:43;30.30;;;4.90;;
22248;SDS011;67538;52.180;5.646;2024-03-25T02:30:10;29.33;;;5.20;;
22248;SDS011;67538;52.180;5.646;2024-03-25T02:32:38;33.50;;;4.53;;
22248;SDS011;67538;52.180;5.646;2024-03-25T02:35:06;31.70;;;5.03;;
22248;SDS011;67538;52.180;5.646;2024-03-25T02:37:35;33.17;;;5.07;;
22248;SDS011;67538;52.180;5.646;2024-03-25T02:40:04;24.77;;;4.50;;
22248;SDS011;67538;52.180;5.646;2024-03-25T02:42:34;37.40;;;5.00;;
22248;SDS011;67538;52.180;5.646;2024-03-25T02:45:04;28.03;;;4.77;;
22248;SDS011;67538;52.180;5.646;2024-03-25T02:47:30;39.77;;;5.87;;
22248;SDS011;67538;52.180;5.646;2024-03-25T02:49:57;36.77;;;5.43;;
22248;SDS011;67538;52.180;5.646;2024-03-25T02:52:24;31.37;;;5.37;;
22248;SDS011;67538;52.180;5.646;2024-03-25T02:54:51;26.40;;;5.23;;
22248;SDS011;67538;52.180;5.646;2024-03-25T02:57:17;36.67;;;5.80;;
22248;SDS011;67538;52.180;5.646;2024-03-25T02:59:44;31.33;;;5.30;;
22248;SDS011;67538;52.180;5.646;2024-03-25T03:02:11;27.97;;;4.60;;
22248;SDS011;67538;52.180;5.646;2024-03-25T03:04:38;36.10;;;4.73;;
22248;SDS011;67538;52.180;5.646;2024-03-25T03:07:04;26.13;;;5.27;;
22248;SDS011;67538;52.180;5.646;2024-03-25T03:09:31;29.60;;;5.63;;
22248;SDS011;67538;52.180;5.646;2024-03-25T03:11:57;39.90;;;5.60;;
22248;SDS011;67538;52.180;5.646;2024-03-25T03:14:24;36.20;;;5.67;;
22248;SDS011;67538;52.180;5.646;2024-03-25T03:16:51;28.50;;;5.20;;
22248;SDS011;67538;52.180;5.646;2024-03-25T03:19:21;21.53;;;5.70;;
22248;SDS011;67538;52.180;5.646;2024-03-25T03:21:47;40.80;;;5.47;;
22248;SDS011;67538;52.180;5.646;2024-03-25T03:24:14;26.60;;;5.73;;
22248;SDS011;67538;52.180;5.646;2024-03-25T03:26:40;39.10;;;5.30;;
22248;SDS011;67538;52.180;5.646;2024-03-25T03:29:07;21.97;;;4.70;;
22248;SDS011;67538;52.180;5.646;2024-03-25T03:31:33;24.67;;;4.63;;
22248;SDS011;67538;52.180;5.646;2024-03-25T03:34:00;26.37;;;5.77;;
22248;SDS011;67538;52.180;5.646;2024-03-25T03:36:27;29.87;;;5.10;;
22248;SDS011;67538;52.180;5.646;2024-03-25T03:38:54;30.87;;;4.83;;
22248;SDS011;67538;52.180;5.646;2024-03-25T03:41:20;34.87;;;5.10;;
22248;SDS011;67538;52.180;5.646;2024-03-25T03:43:47;34.93;;;4.97;;
22248;SDS011;67538;52.180;5.646;2024-03-25T03:46:13;24.43;;;5.30;;
22248;SDS011;67538;52.180;5.646;2024-03-25T03:48:40;32.23;;;4.93;;
22248;SDS011;67538;52.180;5.646;2024-03-25T03:51:06;34.53;;;5.67;;
22248;SDS011;67538;52.180;5.646;2024-03-25T03:53:35;31.60;;;5.73;;
22248;SDS011;67538;52.180;5.646;2024-03-25T03:56:02;28.43;;;5.37;;
22248;SDS011;67538;52.180;5.646;2024-03-25T03:58:31;29.03;;;5.23;;
22248;SDS011;67538;52.180;5.646;2024-03-25T04:00:57;31.47;;;5.90;;
22248;SDS011;67538;52.180;5.646;2024-03-25T04:03:25;22.10;;;5.00;;
22248;SDS011;67538;52.180;5.646;2024-03-25T04:05:51;35.87;;;5.50;;
22248;SDS011;67538;52.180;5.646;2024-03-25T04:08:18;35.77;;;5.30;;
22248;SDS011;67538;52.180;5.646;2024-03-25T04:10:46;38.97;;;6.83;;
22248;SDS011;67538;52.180;5.646;2024-03-25T04:13:13;27.67;;;5.83;;
22248;SDS011;67538;52.180;5.646;2024-03-25T04:15:40;36.97;;;5.70;;
22248;SDS011;67538;52.180;5.646;2024-03-25T04:18:08;34.13;;;5.60;;
22248;SDS011;67538;52.180;5.646;2024-03-25T04:20:37;30.63;;;5.67;;
22248;SDS011;67538;52.180;5.646;2024-03-25T04:23:05;28.57;;;5.50;;
22248;SDS011;67538;52.180;5.646;2024-03-25T04:25:32;39.27;;;6.20;;
22248;SDS011;67538;52.180;5.646;2024-03-25T04:28:01;31.47;;;5.60;;
22248;SDS011;67538;52.180;5.646;2024-03-25T04:30:27;32.40;;;6.40;;
22248;SDS011;67538;52.180;5.646;2024-03-25T04:32:54;30.80;;;6.13;;
22248;SDS011;67538;52.180;5.646;2024-03-25T04:35:20;34.87;;;5.67;;
22248;SDS011;67538;52.180;5.646;2024-03-25T04:37:47;28.23;;;6.23;;
22248;SDS011;67538;52.180;5.646;2024-03-25T04:40:13;34.90;;;5.97;;
22248;SDS011;67538;52.180;5.646;2024-03-25T04:42:39;37.87;;;6.60;;
22248;SDS011;67538;52.180;5.646;2024-03-25T04:45:07;29.57;;;6.00;;
22248;SDS011;67538;52.180;5.646;2024-03-25T04:47:33;28.57;;;5.63;;
22248;SDS011;67538;52.180;5.646;2024-03-25T04:49:59;30.60;;;6.30;;
22248;SDS011;67538;52.180;5.646;2024-03-25T04:52:25;32.50;;;6.10;;
22248;SDS011;67538;52.180;5.646;2024-03-25T04:54:51;37.37;;;6.30;;
22248;SDS011;67538;52.180;5.646;2024-03-25T04:57:17;23.67;;;6.07;;
22248;SDS011;67538;52.180;5.646;2024-03-25T04:59:43;38.43;;;6.87;;
22248;SDS011;67538;52.180;5.646;2024-03-25T05:02:11;24.77;;;5.43;;
22248;SDS011;67538;52.180;5.646;2024-03-25T05:04:37;27.73;;;6.03;;
22248;SDS011;67538;52.180;5.646;2024-03-25T05:07:03;26.77;;;6.43;;
22248;SDS011;67538;52.180;5.646;2024-03-25T05:09:29;32.00;;;6.60;;
22248;SDS011;67538;52.180;5.646;2024-03-25T05:11:55;40.03;;;7.17;;
22248;SDS011;67538;52.180;5.646;2024-03-25T05:14:21;35.13;;;6.93;;
22248;SDS011;67538;52.180;5.646;2024-03-25T05:16:47;32.67;;;6.40;;
22248;SDS011;67538;52.180;5.646;2024-03-25T05:19:15;36.43;;;6.73;;
22248;SDS011;67538;52.180;5.646;2024-03-25T05:21:41;32.37;;;6.80;;
22248;SDS011;67538;52.180;5.646;2024-03-25T05:24:07;37.73;;;6.30;;
22248;SDS011;67538;52.180;5.646;2024-03-25T05:26:33;38.17;;;6.97;;
22248;SDS011;67538;52.180;5.646;2024-03-25T05:28:59;32.93;;;6.30;;
22248;SDS011;67538;52.180;5.646;2024-03-25T05:31:25;37.57;;;6.13;;
22248;SDS011;67538;52.180;5.646;2024-03-25T05:33:51;33.50;;;6.60;;
22248;SDS011;67538;52.180;5.646;2024-03-25T05:36:19;29.97;;;7.03;;
22248;SDS011;67538;52.180;5.646;2024-03-25T05:38:45;28.37;;;6.40;;
22248;SDS011;67538;52.180;5.646;2024-03-25T05:41:11;32.60;;;6.67;;
22248;SDS011;67538;52.180;5.646;2024-03-25T05:43:37;32.60;;;7.10;;
22248;SDS011;67538;52.180;5.646;2024-03-25T05:46:03;39.63;;;7.37;;
22248;SDS011;67538;52.180;5.646;2024-03-25T05:48:29;37.97;;;6.83;;
22248;SDS011;67538;52.180;5.646;2024-03-25T05:50:59;30.73;;;6.63;;
22248;SDS011;67538;52.180;5.646;2024-03-25T05:53:27;33.33;;;7.57;;
22248;SDS011;67538;52.180;5.646;2024-03-25T05:55:54;37.10;;;7.83;;
22248;SDS011;67538;52.180;5.646;2024-03-25T05:58:20;47.37;;;7.00;;
22248;SDS011;67538;52.180;5.646;2024-03-25T06:00:46;30.03;;;6.50;;
22248;SDS011;67538;52.180;5.646;2024-03-25T06:03:13;30.90;;;7.03;;
22248;SDS011;67538;52.180;5.646;2024-03-25T06:05:39;41.03;;;7.73;;
22248;SDS011;67538;52.180;5.646;2024-03-25T06:08:06;41.30;;;7.60;;
22248;SDS011;67538;52.180;5.646;2024-03-25T06:10:37;34.30;;;7.10;;
22248;SDS011;67538;52.180;5.646;2024-03-25T06:13:03;57.90;;;8.73;;
22248;SDS011;67538;52.180;5.646;2024-03-25T06:15:29;30.73;;;8.20;;
22248;SDS011;67538;52.180;5.646;2024-03-25T06:17:55;42.07;;;8.23;;
22248;SDS011;67538;52.180;5.646;2024-03-25T06:20:21;41.03;;;8.57;;
22248;SDS011;67538;52.180;5.646;2024-03-25T06:22:47;44.90;;;8.57;;
22248;SDS011;67538;52.180;5.646;2024-03-25T06:25:14;39.70;;;8.80;;
22248;SDS011;67538;52.180;5.646;2024-03-25T06:27:41;40.50;;;8.97;;
22248;SDS011;67538;52.180;5.646;2024-03-25T06:30:08;48.87;;;10.30;;
22248;SDS011;67538;52.180;5.646;2024-03-25T06:32:53;43.23;;;9.73;;
22248;SDS011;67538;52.180;5.646;2024-03-25T06:35:37;39.97;;;9.57;;
22248;SDS011;67538;52.180;5.646;2024-03-25T06:38:03;51.77;;;10.17;;
22248;SDS011;67538;52.180;5.646;2024-03-25T06:40:29;36.17;;;9.27;;
22248;SDS011;67538;52.180;5.646;2024-03-25T06:42:57;39.63;;;9.97;;
22248;SDS011;67538;52.180;5.646;2024-03-25T06:45:23;34.70;;;10.03;;
22248;SDS011;67538;52.180;5.646;2024-03-25T06:47:49;38.10;;;9.50;;
22248;SDS011;67538;52.180;5.646;2024-03-25T06:50:15;36.97;;;10.03;;
22248;SDS011;67538;52.180;5.646;2024-03-25T06:52:41;39.60;;;10.10;;
22248;SDS011;67538;52.180;5.646;2024-03-25T06:55:07;53.40;;;10.27;;
22248;SDS011;67538;52.180;5.646;2024-03-25T06:57:34;45.30;;;10.07;;
22248;SDS011;67538;52.180;5.646;2024-03-25T07:00:01;41.97;;;10.20;;
22248;SDS011;67538;52.180;5.646;2024-03-25T07:02:27;32.90;;;9.17;;
22248;SDS011;67538;52.180;5.646;2024-03-25T07:04:54;45.73;;;9.57;;
22248;SDS011;67538;52.180;5.646;2024-03-25T07:07:20;38.93;;;9.67;;
22248;SDS011;67538;52.180;5.646;2024-03-25T07:09:46;47.93;;;9.77;;
22248;SDS011;67538;52.180;5.646;2024-03-25T07:12:12;34.83;;;9.27;;
22248;SDS011;67538;52.180;5.646;2024-03-25T07:14:38;33.57;;;9.70;;
22248;SDS011;67538;52.180;5.646;2024-03-25T07:17:05;44.97;;;9.87;;
22248;SDS011;67538;52.180;5.646;2024-03-25T07:19:31;45.03;;;9.77;;
22248;SDS011;67538;52.180;5.646;2024-03-25T07:21:57;42.00;;;9.47;;
22248;SDS011;67538;52.180;5.646;2024-03-25T07:24:23;45.13;;;10.23;;
22248;SDS011;67538;52.180;5.646;2024-03-25T07:26:49;38.03;;;9.50;;
22248;SDS011;67538;52.180;5.646;2024-03-25T07:29:15;42.87;;;10.00;;
22248;SDS011;67538;52.180;5.646;2024-03-25T07:31:41;38.10;;;10.30;;
22248;SDS011;67538;52.180;5.646;2024-03-25T07:34:08;48.23;;;10.63;;
22248;SDS011;67538;52.180;5.646;2024-03-25T07:36:35;43.17;;;10.00;;
22248;SDS011;67538;52.180;5.646;2024-03-25T07:39:01;41.90;;;10.03;;
22248;SDS011;67538;52.180;5.646;2024-03-25T07:41:27;39.53;;;10.83;;
22248;SDS011;67538;52.180;5.646;2024-03-25T07:43:53;40.57;;;10.30;;
22248;SDS011;67538;52.180;5.646;2024-03-25T07:46:19;46.77;;;9.67;;
22248;SDS011;67538;52.180;5.646;2024-03-25T07:48:45;41.57;;;9.50;;
22248;SDS011;67538;52.180;5.646;2024-03-25T07:51:12;37.93;;;10.30;;
22248;SDS011;67538;52.180;5.646;2024-03-25T07:53:38;42.23;;;9.83;;
22248;SDS011;67538;52.180;5.646;2024-03-25T07:56:04;45.33;;;9.87;;
22248;SDS011;67538;52.180;5.646;2024-03-25T07:58:31;36.07;;;9.30;;
22248;SDS011;67538;52.180;5.646;2024-03-25T08:00:57;40.30;;;8.53;;
22248;SDS011;67538;52.180;5.646;2024-03-25T08:03:23;38.10;;;8.73;;
22248;SDS011;67538;52.180;5.646;2024-03-25T08:05:49;38.23;;;7.67;;
22248;SDS011;67538;52.180;5.646;2024-03-25T08:08:16;33.53;;;7.80;;
22248;SDS011;67538;52.180;5.646;2024-03-25T08:10:42;23.87;;;6.80;;
22248;SDS011;67538;52.180;5.646;2024-03-25T08:13:08;22.20;;;7.13;;
22248;SDS011;67538;52.180;5.646;2024-03-25T08:15:34;24.80;;;6.50;;
22248;SDS011;67538;52.180;5.646;2024-03-25T08:18:00;27.53;;;6.77;;
22248;SDS011;67538;52.180;5.646;2024-03-25T08:20:26;28.93;;;6.40;;
22248;SDS011;67538;52.180;5.646;2024-03-25T08:22:52;27.53;;;6.40;;
22248;SDS011;67538;52.180;5.646;2024-03-25T08:25:19;16.67;;;5.90;;
22248;SDS011;67538;52.180;5.646;2024-03-25T08:27:45;24.00;;;5.20;;
22248;SDS011;67538;52.180;5.646;2024-03-25T08:30:12;27.50;;;5.10;;
22248;SDS011;67538;52.180;5.646;2024-03-25T08:32:38;25.53;;;5.70;;
22248;SDS011;67538;52.180;5.646;2024-03-25T08:35:04;20.43;;;5.17;;
22248;SDS011;67538;52.180;5.646;2024-03-25T08:37:30;18.43;;;5.30;;
22248;SDS011;67538;52.180;5.646;2024-03-25T08:39:56;25.60;;;5.10;;
22248;SDS011;67538;52.180;5.646;2024-03-25T08:42:24;25.13;;;5.77;;
22248;SDS011;67538;52.180;5.646;2024-03-25T08:44:50;30.27;;;5.60;;
22248;SDS011;67538;52.180;5.646;2024-03-25T08:47:16;34.10;;;5.47;;
22248;SDS011;67538;52.180;5.646;2024-03-25T08:49:42;28.13;;;4.40;;
22248;SDS011;67538;52.180;5.646;2024-03-25T08:52:08;21.17;;;3.53;;
22248;SDS011;67538;52.180;5.646;2024-03-25T08:54:34;22.57;;;3.90;;
22248;SDS011;67538;52.180;5.646;2024-03-25T08:57:00;20.77;;;4.37;;
22248;SDS011;67538;52.180;5.646;2024-03-25T08:59:27;16.07;;;3.67;;
22248;SDS011;67538;52.180;5.646;2024-03-25T09:01:53;25.73;;;4.47;;
22248;SDS011;67538;52.180;5.646;2024-03-25T09:04:19;20.37;;;4.37;;
22248;SDS011;67538;52.180;5.646;2024-03-25T09:06:45;21.20;;;4.33;;
22248;SDS011;67538;52.180;5.646;2024-03-25T09:09:11;17.93;;;5.13;;
22248;SDS011;67538;52.180;5.646;2024-03-25T09:11:55;17.33;;;3.93;;
22248;SDS011;67538;52.180;5.646;2024-03-25T09:14:21;23.83;;;4.93;;
22248;SDS011;67538;52.180;5.646;2024-03-25T09:16:49;19.47;;;4.30;;
22248;SDS011;67538;52.180;5.646;2024-03-25T09:19:15;18.67;;;4.07;;
22248;SDS011;67538;52.180;5.646;2024-03-25T09:21:41;19.90;;;3.80;;
22248;SDS011;67538;52.180;5.646;2024-03-25T09:24:07;24.13;;;3.17;;
22248;SDS011;67538;52.180;5.646;2024-03-25T09:26:33;21.30;;;4.23;;
22248;SDS011;67538;52.180;5.646;2024-03-25T09:28:59;18.67;;;3.87;;
22248;SDS011;67538;52.180;5.646;2024-03-25T09:31:25;24.20;;;3.70;;
22248;SDS011;67538;52.180;5.646;2024-03-25T09:33:52;15.60;;;4.07;;
22248;SDS011;67538;52.180;5.646;2024-03-25T09:36:18;16.83;;;3.10;;
22248;SDS011;67538;52.180;5.646;2024-03-25T09:38:44;15.33;;;3.40;;
22248;SDS011;67538;52.180;5.646;2024-03-25T09:41:10;20.07;;;3.67;;
22248;SDS011;67538;52.180;5.646;2024-03-25T09:43:39;14.53;;;4.07;;
22248;SDS011;67538;52.180;5.646;2024-03-25T09:46:09;14.57;;;3.73;;
22248;SDS011;67538;52.180;5.646;2024-03-25T09:48:35;13.63;;;3.70;;
22248;SDS011;67538;52.180;5.646;2024-03-25T09:51:03;19.57;;;3.83;;
22248;SDS011;67538;52.180;5.646;2024-03-25T09:53:30;11.70;;;3.70;;
22248;SDS011;67538;52.180;5.646;2024-03-25T09:55:56;11.30;;;3.53;;
22248;SDS011;67538;52.180;5.646;2024-03-25T09:58:22;13.30;;;3.07;;
22248;SDS011;67538;52.180;5.646;2024-03-25T10:00:50;17.97;;;3.70;;
22248;SDS011;67538;52.180;5.646;2024-03-25T10:03:16;20.03;;;3.37;;
22248;SDS011;67538;52.180;5.646;2024-03-25T10:05:42;18.33;;;4.00;;
22248;SDS011;67538;52.180;5.646;2024-03-25T10:08:10;15.70;;;3.73;;
22248;SDS011;67538;52.180;5.646;2024-03-25T10:10:36;20.03;;;3.90;;
22248;SDS011;67538;52.180;5.646;2024-03-25T10:13:02;18.57;;;3.63;;
22248;SDS011;67538;52.180;5.646;2024-03-25T10:15:29;18.60;;;4.10;;
22248;SDS011;67538;52.180;5.646;2024-03-25T10:17:55;16.07;;;3.60;;
22248;SDS011;67538;52.180;5.646;2024-03-25T10:20:21;20.60;;;3.90;;
22248;SDS011;67538;52.180;5.646;2024-03-25T10:22:47;14.40;;;3.50;;
22248;SDS011;67538;52.180;5.646;2024-03-25T10:25:22;15.57;;;3.90;;
22248;SDS011;67538;52.180;5.646;2024-03-25T10:27:55;12.00;;;3.83;;
22248;SDS011;67538;52.180;5.646;2024-03-25T10:30:21;11.93;;;3.40;;
22248;SDS011;67538;52.180;5.646;2024-03-25T10:32:57;16.43;;;3.57;;
22248;SDS011;67538;52.180;5.646;2024-03-25T10:35:25;12.67;;;3.13;;
22248;SDS011;67538;52.180;5.646;2024-03-25T10:37:53;17.97;;;3.67;;
22248;SDS011;67538;52.180;5.646;2024-03-25T10:40:23;12.57;;;3.53;;
22248;SDS011;67538;52.180;5.646;2024-03-25T10:42:53;15.13;;;3.63;;
22248;SDS011;67538;52.180;5.646;2024-03-25T10:45:26;13.40;;;3.63;;
22248;SDS011;67538;52.180;5.646;2024-03-25T10:47:54;19.30;;;4.60;;
22248;SDS011;67538;52.180;5.646;2024-03-25T10:50:23;16.10;;;4.57;;
22248;SDS011;67538;52.180;5.646;2024-03-25T10:52:53;15.57;;;4.47;;
22248;SDS011;67538;52.180;5.646;2024-03-25T10:55:19;15.77;;;4.53;;
22248;SDS011;67538;52.180;5.646;2024-03-25T10:57:48;16.97;;;4.17;;
22248;SDS011;67538;52.180;5.646;2024-03-25T11:00:15;16.10;;;4.30;;
22248;SDS011;67538;52.180;5.646;2024-03-25T11:02:42;17.67;;;4.27;;
22248;SDS011;67538;52.180;5.646;2024-03-25T11:05:09;11.40;;;3.70;;
22248;SDS011;67538;52.180;5.646;2024-03-25T11:07:37;19.60;;;4.43;;
22248;SDS011;67538;52.180;5.646;2024-03-25T11:10:03;11.77;;;3.60;;
22248;SDS011;67538;52.180;5.646;2024-03-25T11:12:37;14.87;;;3.73;;
22248;SDS011;67538;52.180;5.646;2024-03-25T11:15:07;14.93;;;3.90;;
22248;SDS011;67538;52.180;5.646;2024-03-25T11:17:34;12.37;;;3.87;;
22248;SDS011;67538;52.180;5.646;2024-03-25T11:20:07;15.43;;;3.70;;
22248;SDS011;67538;52.180;5.646;2024-03-25T11:22:35;18.67;;;3.80;;
22248;SDS011;67538;52.180;5.646;2024-03-25T11:25:07;11.93;;;3.33;;
22248;SDS011;67538;52.180;5.646;2024-03-25T11:27:36;11.77;;;3.43;;
22248;SDS011;67538;52.180;5.646;2024-03-25T11:30:03;17.60;;;3.57;;
22248;SDS011;67538;52.180;5.646;2024-03-25T11:32:40;18.80;;;4.10;;
22248;SDS011;67538;52.180;5.646;2024-03-25T11:35:09;11.43;;;3.60;;
22248;SDS011;67538;52.180;5.646;2024-03-25T11:37:38;14.20;;;3.40;;
22248;SDS011;67538;52.180;5.646;2024-03-25T11:40:05;13.60;;;3.43;;
22248;SDS011;67538;52.180;5.646;2024-03-25T11:42:32;16.73;;;3.50;;
22248;SDS011;67538;52.180;5.646;2024-03-25T11:44:59;20.53;;;4.13;;
22248;SDS011;67538;52.180;5.646;2024-03-25T11:47:26;13.17;;;3.57;;
22248;SDS011;67538;52.180;5.646;2024-03-25T11:49:54;16.50;;;4.40;;
22248;SDS011;67538;52.180;5.646;2024-03-25T11:52:20;15.53;;;3.80;;
22248;SDS011;67538;52.180;5.646;2024-03-25T11:54:53;19.43;;;3.50;;
22248;SDS011;67538;52.180;5.646;2024-03-25T11:57:19;14.50;;;3.70;;
22248;SDS011;67538;52.180;5.646;2024-03-25T11:59:46;9.83;;;2.73;;
22248;SDS011;67538;52.180;5.646;2024-03-25T12:02:12;12.43;;;3.33;;
22248;SDS011;67538;52.180;5.646;2024-03-25T12:04:41;13.93;;;3.37;;
22248;SDS011;67538;52.180;5.646;2024-03-25T12:07:09;13.70;;;3.30;;
22248;SDS011;67538;52.180;5.646;2024-03-25T12:09:36;12.33;;;3.37;;
22248;SDS011;67538;52.180;5.646;2024-03-25T12:12:21;11.50;;;3.20;;
22248;SDS011;67538;52.180;5.646;2024-03-25T12:14:47;7.57;;;2.63;;
22248;SDS011;67538;52.180;5.646;2024-03-25T12:17:13;13.30;;;3.43;;
22248;SDS011;67538;52.180;5.646;2024-03-25T12:19:39;9.40;;;3.33;;
22248;SDS011;67538;52.180;5.646;2024-03-25T12:22:06;16.33;;;3.70;;
22248;SDS011;67538;52.180;5.646;2024-03-25T12:24:34;10.93;;;3.30;;
22248;SDS011;67538;52.180;5.646;2024-03-25T12:27:00;15.53;;;3.70;;
22248;SDS011;67538;52.180;5.646;2024-03-25T12:29:26;13.93;;;3.37;;
22248;SDS011;67538;52.180;5.646;2024-03-25T12:31:55;15.63;;;4.13;;
22248;SDS011;67538;52.180;5.646;2024-03-25T12:34:22;15.10;;;4.17;;
22248;SDS011;67538;52.180;5.646;2024-03-25T12:36:50;16.50;;;3.90;;
22248;SDS011;67538;52.180;5.646;2024-03-25T12:39:16;15.97;;;4.33;;
22248;SDS011;67538;52.180;5.646;2024-03-25T12:41:44;16.43;;;4.03;;
22248;SDS011;67538;52.180;5.646;2024-03-25T12:44:11;14.73;;;3.87;;
22248;SDS011;67538;52.180;5.646;2024-03-25T12:46:38;22.13;;;4.03;;
22248;SDS011;67538;52.180;5.646;2024-03-25T12:49:04;14.93;;;4.17;;
22248;SDS011;67538;52.180;5.646;2024-03-25T12:51:30;17.60;;;3.83;;
22248;SDS011;67538;52.180;5.646;2024-03-25T12:53:57;11.30;;;3.83;;
22248;SDS011;67538;52.180;5.646;2024-03-25T12:56:23;16.33;;;4.20;;
22248;SDS011;67538;52.180;5.646;2024-03-25T12:58:51;14.43;;;3.97;;
22248;SDS011;67538;52.180;5.646;2024-03-25T13:01:17;15.77;;;3.93;;
22248;SDS011;67538;52.180;5.646;2024-03-25T13:03:43;11.43;;;4.13;;
22248;SDS011;67538;52.180;5.646;2024-03-25T13:06:09;13.97;;;4.07;;
22248;SDS011;67538;52.180;5.646;2024-03-25T13:08:35;12.40;;;4.80;;
22248;SDS011;67538;52.180;5.646;2024-03-25T13:11:01;9.77;;;3.53;;
22248;SDS011;67538;52.180;5.646;2024-03-25T13:13:27;10.47;;;4.00;;
22248;SDS011;67538;52.180;5.646;2024-03-25T13:15:55;11.60;;;3.70;;
22248;SDS011;67538;52.180;5.646;2024-03-25T13:18:21;9.43;;;3.77;;
22248;SDS011;67538;52.180;5.646;2024-03-25T13:20:47;9.53;;;3.73;;
22248;SDS011;67538;52.180;5.646;2024-03-25T13:23:13;7.70;;;3.30;;
22248;SDS011;67538;52.180;5.646;2024-03-25T13:25:39;10.13;;;3.57;;
22248;SDS011;67538;52.180;5.646;2024-03-25T13:28:05;12.47;;;3.93;;
22248;SDS011;67538;52.180;5.646;2024-03-25T13:30:31;10.17;;;3.47;;
22248;SDS011;67538;52.180;5.646;2024-03-25T13:32:59;11.27;;;3.33;;
22248;SDS011;67538;52.180;5.646;2024-03-25T13:35:25;16.17;;;3.40;;
22248;SDS011;67538;52.180;5.646;2024-03-25T13:37:51;8.43;;;3.20;;
22248;SDS011;67538;52.180;5.646;2024-03-25T13:40:17;12.97;;;3.60;;
22248;SDS011;67538;52.180;5.646;2024-03-25T13:42:43;9.83;;;3.90;;
22248;SDS011;67538;52.180;5.646;2024-03-25T13:45:09;9.07;;;3.90;;
22248;SDS011;67538;52.180;5.646;2024-03-25T13:47:35;8.73;;;4.00;;
22248;SDS011;67538;52.180;5.646;2024-03-25T13:50:03;14.07;;;4.00;;
22248;SDS011;67538;52.180;5.646;2024-03-25T13:52:30;11.20;;;3.57;;
22248;SDS011;67538;52.180;5.646;2024-03-25T13:54:56;10.00;;;4.20;;
22248;SDS011;67538;52.180;5.646;2024-03-25T13:57:22;13.40;;;3.87;;
22248;SDS011;67538;52.180;5.646;2024-03-25T13:59:48;13.33;;;3.77;;
22248;SDS011;67538;52.180;5.646;2024-03-25T14:02:15;9.20;;;3.40;;
22248;SDS011;67538;52.180;5.646;2024-03-25T14:04:41;8.07;;;3.50;;
22248;SDS011;67538;52.180;5.646;2024-03-25T14:07:09;20.10;;;3.80;;
22248;SDS011;67538;52.180;5.646;2024-03-25T14:09:35;9.47;;;3.30;;
22248;SDS011;67538;52.180;5.646;2024-03-25T14:12:01;8.27;;;3.50;;
22248;SDS011;67538;52.180;5.646;2024-03-25T14:14:28;10.03;;;3.70;;
22248;SDS011;67538;52.180;5.646;2024-03-25T14:16:54;13.53;;;4.13;;
22248;SDS011;67538;52.180;5.646;2024-03-25T14:19:20;14.93;;;3.90;;
22248;SDS011;67538;52.180;5.646;2024-03-25T14:21:47;10.43;;;3.40;;
22248;SDS011;67538;52.180;5.646;2024-03-25T14:24:15;11.57;;;3.43;;
22248;SDS011;67538;52.180;5.646;2024-03-25T14:26:41;12.90;;;3.37;;
22248;SDS011;67538;52.180;5.646;2024-03-25T14:29:07;6.30;;;3.47;;
22248;SDS011;67538;52.180;5.646;2024-03-25T14:31:33;9.47;;;3.30;;
22248;SDS011;67538;52.180;5.646;2024-03-25T14:33:59;6.37;;;3.50;;
22248;SDS011;67538;52.180;5.646;2024-03-25T14:36:25;10.33;;;3.47;;
22248;SDS011;67538;52.180;5.646;2024-03-25T14:38:51;8.73;;;3.43;;
22248;SDS011;67538;52.180;5.646;2024-03-25T14:41:20;9.53;;;3.93;;
22248;SDS011;67538;52.180;5.646;2024-03-25T14:43:46;10.57;;;3.33;;